Time;durP1;ratioP1;P1;durP2;ratioP2;P2;SDS_P1;SDS_P2;PMS_P1;PMS_P2;Temp;Humidity;BMP_temperature;BMP_pressure;BME280_temperature;BME280_humidity;BME280_pressure;Samples;Min_cycle;Max_cycle;Signal;HPM_P1;HPM_P2
2021/06/11 00:02:52;;;;;;;9.07;5.40;;;24.90;49.70;;;;;;6102194;29;20055;-75
2021/06/11 00:05:53;;;;;;;9.70;5.18;;;24.90;49.80;;;;;;6132044;28;20126;-75
2021/06/11 00:08:54;;;;;;;6.35;4.65;;;24.80;49.80;;;;;;6126089;28;20449;-75
2021/06/11 00:11:55;;;;;;;7.55;4.93;;;24.80;49.80;;;;;;6109628;28;20091;-75
2021/06/11 00:14:58;;;;;;;7.53;4.88;;;24.80;49.90;;;;;;6109565;28;20063;-74
2021/06/11 00:17:59;;;;;;;11.52;5.00;;;24.70;50.00;;;;;;6125201;28;20040;-75
2021/06/11 00:21:00;;;;;;;10.45;5.25;;;24.70;50.30;;;;;;6109242;28;20114;-74
2021/06/11 00:24:01;;;;;;;9.57;4.78;;;24.70;50.30;;;;;;6109139;28;20039;-75
2021/06/11 00:27:02;;;;;;;7.05;4.53;;;24.60;50.30;;;;;;6126075;28;20105;-74
2021/06/11 00:30:05;;;;;;;6.78;4.60;;;24.60;50.40;;;;;;6120479;28;20472;-75
2021/06/11 00:33:09;;;;;;;9.05;4.55;;;24.50;50.40;;;;;;6117532;29;20036;-75
2021/06/11 00:36:10;;;;;;;9.80;5.22;;;24.50;50.40;;;;;;6118346;28;20070;-75
2021/06/11 00:39:11;;;;;;;11.27;5.65;;;24.50;50.60;;;;;;6124874;28;20042;-75
2021/06/11 00:42:13;;;;;;;13.70;5.78;;;24.50;50.60;;;;;;6124841;28;20118;-75
2021/06/11 00:45:16;;;;;;;10.30;5.03;;;24.50;50.70;;;;;;6110895;28;20035;-75
2021/06/11 00:48:17;;;;;;;9.60;5.55;;;24.50;50.90;;;;;;6109279;28;20044;-76
2021/06/11 00:51:20;;;;;;;9.07;5.78;;;24.40;51.50;;;;;;6109463;28;20040;-76
2021/06/11 00:54:23;;;;;;;10.73;6.00;;;24.40;50.90;;;;;;6108404;28;20099;-76
2021/06/11 00:57:24;;;;;;;11.07;4.63;;;24.40;50.90;;;;;;6125259;28;20040;-75
2021/06/11 01:00:25;;;;;;;7.00;4.85;;;24.40;50.90;;;;;;6118984;28;20460;-76
2021/06/11 01:03:26;;;;;;;8.73;4.95;;;24.30;50.80;;;;;;6102845;29;20167;-75
2021/06/11 01:06:28;;;;;;;12.02;5.25;;;24.30;50.80;;;;;;6124455;28;20044;-75
2021/06/11 01:09:32;;;;;;;7.35;4.95;;;24.30;50.80;;;;;;6125196;28;20040;-75
2021/06/11 01:12:34;;;;;;;11.70;5.10;;;24.30;51.00;;;;;;6125059;28;20035;-75
2021/06/11 01:15:36;;;;;;;7.57;4.30;;;24.30;51.20;;;;;;6126317;29;20042;-75
2021/06/11 01:18:37;;;;;;;10.18;5.20;;;24.30;51.30;;;;;;6126220;29;20115;-74
2021/06/11 01:21:50;;;;;;;6.63;4.00;;;24.30;51.60;;;;;;6124861;29;20047;-75
2021/06/11 01:24:57;;;;;;;7.30;4.00;;;24.20;51.80;;;;;;6124509;28;20036;-75
2021/06/11 01:27:59;;;;;;;7.25;4.10;;;24.20;52.10;;;;;;6125681;28;20477;-74
2021/06/11 01:31:01;;;;;;;6.18;4.25;;;24.10;52.40;;;;;;6116817;28;20037;-75
2021/06/11 01:34:09;;;;;;;10.00;4.38;;;24.10;52.80;;;;;;6105467;29;20040;-74
2021/06/11 01:37:19;;;;;;;9.60;4.15;;;24.00;53.10;;;;;;6120695;29;20176;-75
2021/06/11 01:40:20;;;;;;;8.02;3.88;;;23.90;53.40;;;;;;6104980;29;20032;-75
2021/06/11 01:43:23;;;;;;;7.25;4.68;;;23.80;53.50;;;;;;6105176;29;20517;-75
2021/06/11 01:46:29;;;;;;;10.88;4.57;;;23.80;53.70;;;;;;6104916;29;20047;-75
2021/06/11 01:49:30;;;;;;;11.35;4.15;;;23.70;53.70;;;;;;6103849;29;20403;-75
2021/06/11 01:52:32;;;;;;;5.85;3.72;;;23.70;53.80;;;;;;6114969;28;20032;-75
2021/06/11 01:55:36;;;;;;;9.98;4.00;;;23.70;54.00;;;;;;6128418;28;21088;-76
2021/06/11 01:58:38;;;;;;;7.85;4.22;;;23.60;54.10;;;;;;6111800;28;20035;-75
2021/06/11 02:01:40;;;;;;;6.85;4.65;;;23.60;54.10;;;;;;6114504;28;20043;-77
2021/06/11 02:04:42;;;;;;;8.82;4.57;;;23.60;54.20;;;;;;6122350;29;20044;-76
2021/06/11 02:07:46;;;;;;;6.53;4.20;;;23.50;54.30;;;;;;6127946;28;20051;-76
2021/06/11 02:10:47;;;;;;;6.75;4.15;;;23.50;54.40;;;;;;6128231;28;20040;-75
2021/06/11 02:13:51;;;;;;;11.00;4.13;;;23.40;54.40;;;;;;6110431;28;20522;-77
2021/06/11 02:16:54;;;;;;;6.30;4.30;;;23.50;54.40;;;;;;6127704;28;20051;-75
2021/06/11 02:19:57;;;;;;;10.13;4.53;;;23.40;54.30;;;;;;6127792;28;20051;-74
2021/06/11 02:22:58;;;;;;;6.70;4.53;;;23.50;54.30;;;;;;6127161;28;20457;-75
2021/06/11 02:26:04;;;;;;;8.40;4.38;;;23.40;54.20;;;;;;6127233;28;20035;-75
2021/06/11 02:29:05;;;;;;;10.45;4.53;;;23.40;54.10;;;;;;6127522;28;20119;-75
2021/06/11 02:32:07;;;;;;;9.38;4.88;;;23.40;54.00;;;;;;6106825;29;20028;-74
2021/06/11 02:35:11;;;;;;;6.07;4.15;;;23.40;54.00;;;;;;6103921;29;20162;-75
2021/06/11 02:38:12;;;;;;;8.70;4.32;;;23.40;53.80;;;;;;6104057;29;20033;-75
2021/06/11 02:41:18;;;;;;;7.55;4.43;;;23.40;53.70;;;;;;6104189;29;20469;-75
2021/06/11 02:44:21;;;;;;;8.50;4.65;;;23.40;53.80;;;;;;6119369;29;20445;-75
2021/06/11 02:47:28;;;;;;;8.95;4.20;;;23.40;53.90;;;;;;6131205;28;20043;-76
2021/06/11 02:50:36;;;;;;;8.20;4.25;;;23.40;54.00;;;;;;6127812;28;20042;-74
2021/06/11 02:53:40;;;;;;;7.25;4.82;;;23.40;54.10;;;;;;6128125;28;20051;-74
2021/06/11 02:56:48;;;;;;;6.97;4.15;;;23.30;54.20;;;;;;6128673;28;20063;-75
2021/06/11 02:59:55;;;;;;;9.45;4.25;;;23.30;54.30;;;;;;6127059;28;20032;-74
2021/06/11 03:03:13;;;;;;;10.15;3.85;;;23.30;54.30;;;;;;6104739;29;20036;-75
2021/06/11 03:06:17;;;;;;;5.78;3.90;;;23.30;54.40;;;;;;6131575;28;20139;-76
2021/06/11 03:09:21;;;;;;;8.02;3.88;;;23.20;54.30;;;;;;6127992;28;20028;-75
2021/06/11 03:12:23;;;;;;;5.43;3.90;;;23.20;54.40;;;;;;6112423;28;20023;-74
2021/06/11 03:15:28;;;;;;;6.60;4.35;;;23.20;54.40;;;;;;6126794;28;20418;-75
2021/06/11 03:18:32;;;;;;;7.72;4.00;;;23.20;54.50;;;;;;6127869;28;20031;-75
2021/06/11 03:21:37;;;;;;;9.60;4.13;;;23.20;54.50;;;;;;6143327;28;20083;-74
2021/06/11 03:24:52;;;;;;;8.77;4.50;;;23.10;54.40;;;;;;6126724;28;20445;-75
2021/06/11 03:27:58;;;;;;;8.05;4.38;;;23.10;54.50;;;;;;6114386;28;20044;-75
2021/06/11 03:31:02;;;;;;;5.00;4.00;;;23.00;54.50;;;;;;6114483;29;20040;-75
2021/06/11 03:34:06;;;;;;;5.60;4.00;;;22.90;54.60;;;;;;6101345;29;20385;-75
2021/06/11 03:37:12;;;;;;;5.93;4.07;;;22.80;54.70;;;;;;6100873;29;20044;-75
2021/06/11 03:40:19;;;;;;;8.02;4.30;;;22.80;54.90;;;;;;6102652;29;20032;-75
2021/06/11 03:43:21;;;;;;;7.85;4.22;;;22.80;55.00;;;;;;6109135;29;20337;-75
2021/06/11 03:46:23;;;;;;;6.35;3.92;;;22.70;55.00;;;;;;6118063;29;20048;-76
2021/06/11 03:49:26;;;;;;;8.32;4.25;;;22.80;55.10;;;;;;6086679;29;20048;-75
2021/06/11 03:52:39;;;;;;;7.80;3.63;;;22.80;55.10;;;;;;6107942;28;20488;-75
2021/06/11 03:55:47;;;;;;;6.63;4.40;;;22.70;55.30;;;;;;6110100;28;20039;-76
2021/06/11 03:58:50;;;;;;;7.40;4.68;;;22.70;55.40;;;;;;6125329;28;20110;-75
2021/06/11 04:01:52;;;;;;;8.52;4.43;;;22.70;55.60;;;;;;6107551;29;20051;-75
2021/06/11 04:04:54;;;;;;;9.98;4.45;;;22.70;55.80;;;;;;6102056;29;20036;-75
2021/06/11 04:07:56;;;;;;;6.90;3.97;;;22.70;55.80;;;;;;6117475;29;20068;-75
2021/06/11 04:10:58;;;;;;;6.10;3.92;;;22.70;55.90;;;;;;6101969;29;20032;-75
2021/06/11 04:14:01;;;;;;;9.63;4.35;;;22.70;55.80;;;;;;6102832;29;20032;-75
2021/06/11 04:17:07;;;;;;;7.65;4.57;;;22.70;55.80;;;;;;6129635;28;20080;-75
2021/06/11 04:20:12;;;;;;;7.38;4.03;;;22.70;55.80;;;;;;6125506;28;20044;-76
2021/06/11 04:23:15;;;;;;;11.30;4.35;;;22.70;55.90;;;;;;6108535;28;20036;-75
2021/06/11 04:26:20;;;;;;;7.50;5.43;;;22.70;56.10;;;;;;6125017;28;20076;-74
2021/06/11 04:29:23;;;;;;;9.30;5.32;;;22.80;56.20;;;;;;6126877;29;20047;-75
2021/06/11 04:32:27;;;;;;;6.85;4.68;;;22.70;56.20;;;;;;6110356;29;20036;-75
2021/06/11 04:35:35;;;;;;;7.90;3.75;;;22.70;56.20;;;;;;6110948;29;20036;-75
2021/06/11 04:38:56;;;;;;;9.13;4.63;;;22.70;56.10;;;;;;6141946;28;20528;-75
2021/06/11 04:41:57;;;;;;;8.88;4.97;;;22.60;56.20;;;;;;6137401;28;20051;-75
2021/06/11 04:44:59;;;;;;;7.57;4.97;;;22.70;56.10;;;;;;6104630;28;20043;-74
2021/06/11 04:48:01;;;;;;;7.80;4.93;;;22.70;56.10;;;;;;6136362;28;20035;-76
2021/06/11 04:51:03;;;;;;;11.05;5.68;;;22.70;56.10;;;;;;6121438;28;20044;-76
2021/06/11 04:54:04;;;;;;;9.20;5.43;;;22.70;56.10;;;;;;6150632;28;20039;-76
2021/06/11 04:57:06;;;;;;;11.73;5.40;;;22.70;56.10;;;;;;6137651;28;20547;-75
2021/06/11 05:00:09;;;;;;;8.88;5.85;;;22.80;56.20;;;;;;6109098;28;20464;-75
2021/06/11 05:03:10;;;;;;;7.07;4.65;;;22.80;56.20;;;;;;6118277;29;20186;-75
2021/06/11 05:06:11;;;;;;;11.50;4.78;;;22.80;56.20;;;;;;6104838;29;20040;-75
2021/06/11 05:09:12;;;;;;;7.57;4.97;;;22.80;56.10;;;;;;6109262;29;20039;-75
2021/06/11 05:12:13;;;;;;;7.85;4.50;;;22.80;56.10;;;;;;6114776;28;20028;-76
2021/06/11 05:15:15;;;;;;;9.43;4.68;;;22.90;56.10;;;;;;6130405;28;20028;-75
2021/06/11 05:18:16;;;;;;;7.80;4.82;;;22.90;56.00;;;;;;6131587;28;20028;-75
2021/06/11 05:21:17;;;;;;;9.38;4.57;;;23.00;56.00;;;;;;6131182;28;20047;-75
2021/06/11 05:24:18;;;;;;;7.78;4.53;;;22.90;56.00;;;;;;6127452;28;20032;-75
2021/06/11 05:27:20;;;;;;;10.63;5.25;;;22.90;56.00;;;;;;6152225;28;20117;-76
2021/06/11 05:30:23;;;;;;;7.65;4.97;;;23.00;56.10;;;;;;6145498;28;20040;-75
2021/06/11 05:33:24;;;;;;;7.30;4.85;;;23.00;56.10;;;;;;6129906;28;20043;-76
2021/06/11 05:36:25;;;;;;;10.80;4.80;;;23.00;56.10;;;;;;6117243;28;20040;-76
2021/06/11 05:39:27;;;;;;;9.82;4.80;;;23.00;56.00;;;;;;6125544;28;20119;-76
2021/06/11 05:42:27;;;;;;;12.07;6.32;;;23.10;56.00;;;;;;6112428;28;20476;-77
2021/06/11 05:45:33;;;;;;;10.27;6.35;;;23.10;55.90;;;;;;6106265;29;20056;-76
2021/06/11 05:48:36;;;;;;;11.25;6.97;;;23.10;55.70;;;;;;6125816;29;20110;-76
2021/06/11 05:51:37;;;;;;;7.25;4.68;;;23.10;55.70;;;;;;6113936;29;20039;-77
2021/06/11 05:54:39;;;;;;;13.40;5.70;;;23.00;55.70;;;;;;6129168;28;20039;-76
2021/06/11 05:57:41;;;;;;;7.70;4.63;;;22.90;55.60;;;;;;6113519;28;20043;-76
2021/06/11 06:00:42;;;;;;;7.50;4.40;;;22.80;55.70;;;;;;6129523;28;20094;-76
2021/06/11 06:03:43;;;;;;;7.97;4.72;;;22.80;55.80;;;;;;6129379;28;20040;-77
2021/06/11 06:06:44;;;;;;;9.75;4.35;;;22.80;55.90;;;;;;6129999;28;20102;-77
2021/06/11 06:09:47;;;;;;;7.18;4.22;;;22.80;55.80;;;;;;6130165;28;20040;-77
2021/06/11 06:12:48;;;;;;;9.27;4.50;;;22.90;55.80;;;;;;6126653;28;20035;-82
2021/06/11 06:15:49;;;;;;;18.63;3.95;;;22.90;55.60;;;;;;6138458;28;20036;-82
2021/06/11 06:18:51;;;;;;;7.22;4.25;;;23.00;55.50;;;;;;6128435;28;20499;-85
2021/06/11 06:21:52;;;;;;;17.05;4.43;;;23.10;55.40;;;;;;6111770;28;20040;-79
2021/06/11 06:24:53;;;;;;;8.70;4.28;;;23.10;55.40;;;;;;6123328;28;20036;-79
2021/06/11 06:27:55;;;;;;;6.72;4.40;;;23.20;55.50;;;;;;6120633;28;20054;-80
2021/06/11 06:30:56;;;;;;;8.45;4.60;;;23.20;55.40;;;;;;6113055;28;20367;-78
2021/06/11 06:34:04;;;;;;;13.63;4.88;;;23.30;55.40;;;;;;6120264;29;20107;-77
2021/06/11 06:37:07;;;;;;;7.97;4.68;;;23.40;55.20;;;;;;6111800;29;20107;-76
2021/06/11 06:40:09;;;;;;;9.10;4.53;;;23.40;54.90;;;;;;6110532;29;20416;-76
2021/06/11 06:43:12;;;;;;;9.07;4.95;;;23.60;54.80;;;;;;6126178;29;20047;-75
2021/06/11 06:46:21;;;;;;;9.77;4.53;;;23.70;54.50;;;;;;6125812;28;20191;-76
2021/06/11 06:49:23;;;;;;;7.65;5.15;;;23.80;54.20;;;;;;6109540;28;20036;-76
2021/06/11 06:52:24;;;;;;;12.93;4.75;;;23.90;54.10;;;;;;6127245;28;20115;-76
2021/06/11 06:55:25;;;;;;;7.15;4.18;;;24.00;53.90;;;;;;6125290;28;20035;-76
2021/06/11 06:58:26;;;;;;;6.25;4.18;;;24.10;53.50;;;;;;6126967;28;20039;-76
2021/06/11 07:01:27;;;;;;;7.47;4.88;;;24.20;53.30;;;;;;6127293;28;20039;-76
2021/06/11 07:04:29;;;;;;;7.60;4.75;;;24.30;53.30;;;;;;6127326;28;20098;-77
2021/06/11 07:07:29;;;;;;;11.43;4.63;;;24.40;53.20;;;;;;6127339;28;20040;-76
2021/06/11 07:10:30;;;;;;;7.63;5.28;;;24.50;53.10;;;;;;6126563;28;20050;-76
2021/06/11 07:13:32;;;;;;;12.18;5.38;;;24.60;53.00;;;;;;6126781;28;20385;-76
2021/06/11 07:16:33;;;;;;;11.80;5.13;;;24.80;52.80;;;;;;6127058;28;20046;-76
2021/06/11 07:19:34;;;;;;;104.50;12.10;;;25.00;52.50;;;;;;6127304;28;20122;-76
2021/06/11 07:22:35;;;;;;;43.28;7.30;;;25.10;52.10;;;;;;6126931;28;20055;-76
2021/06/11 07:25:36;;;;;;;20.77;4.80;;;25.20;52.00;;;;;;6124982;28;20400;-76
2021/06/11 07:28:38;;;;;;;16.38;5.35;;;25.40;51.70;;;;;;6126147;28;20063;-76
2021/06/11 07:31:39;;;;;;;9.38;4.82;;;25.50;51.20;;;;;;6093967;29;20486;-77
2021/06/11 07:34:41;;;;;;;61.25;8.60;;;25.60;50.90;;;;;;6103488;29;20054;-75
2021/06/11 07:37:43;;;;;;;7.72;4.20;;;25.70;50.80;;;;;;6103285;29;20060;-76
2021/06/11 07:40:45;;;;;;;10.23;4.70;;;25.80;50.60;;;;;;6102236;29;20405;-76
2021/06/11 07:43:46;;;;;;;12.45;4.38;;;25.90;50.10;;;;;;6101858;29;20040;-77
2021/06/11 07:46:48;;;;;;;6.95;4.22;;;26.00;49.70;;;;;;6101575;29;20132;-77
2021/06/11 07:49:49;;;;;;;35.05;5.40;;;26.10;49.20;;;;;;6102253;29;20043;-76
2021/06/11 07:52:50;;;;;;;7.47;3.83;;;26.10;49.10;;;;;;6102991;29;20032;-76
2021/06/11 07:55:51;;;;;;;16.88;4.75;;;26.30;48.70;;;;;;6124203;28;20040;-77
2021/06/11 07:58:53;;;;;;;11.00;4.22;;;26.30;48.30;;;;;;6110269;28;20093;-76
2021/06/11 08:01:54;;;;;;;5.88;3.80;;;26.40;47.90;;;;;;6126102;28;20035;-76
2021/06/11 08:04:56;;;;;;;5.72;4.03;;;26.50;47.80;;;;;;6108757;28;20449;-77
2021/06/11 08:07:57;;;;;;;13.07;4.85;;;26.60;47.40;;;;;;6126481;28;20452;-77
2021/06/11 08:10:59;;;;;;;5.95;3.80;;;26.70;47.30;;;;;;6110254;28;20051;-77
2021/06/11 08:14:00;;;;;;;11.38;4.00;;;26.70;47.20;;;;;;6141927;28;20457;-76
2021/06/11 08:17:01;;;;;;;8.85;4.20;;;26.70;47.00;;;;;;6125985;28;20040;-77
2021/06/11 08:20:08;;;;;;;7.25;4.45;;;26.80;46.90;;;;;;6126149;28;20401;-77
2021/06/11 08:23:10;;;;;;;9.20;4.00;;;26.80;46.80;;;;;;6109934;28;20067;-76
2021/06/11 08:26:14;;;;;;;9.38;4.45;;;26.90;47.00;;;;;;6123872;28;20039;-76
2021/06/11 08:29:15;;;;;;;8.43;4.07;;;27.10;46.90;;;;;;6125418;28;20449;-76
2021/06/11 08:32:16;;;;;;;23.42;10.73;;;27.30;46.80;;;;;;6088569;29;20036;-77
2021/06/11 08:35:18;;;;;;;6.32;4.25;;;27.30;46.50;;;;;;6102571;29;20032;-77
2021/06/11 08:38:20;;;;;;;8.85;4.00;;;27.50;46.50;;;;;;6102591;29;20043;-77
2021/06/11 08:41:22;;;;;;;8.95;4.40;;;27.50;46.20;;;;;;6106223;29;20466;-76
2021/06/11 08:44:25;;;;;;;5.80;4.28;;;27.60;46.10;;;;;;6105743;29;20032;-76
2021/06/11 08:47:27;;;;;;;7.53;4.63;;;27.60;46.00;;;;;;6120442;28;20453;-77
2021/06/11 08:50:32;;;;;;;9.52;4.05;;;27.60;46.10;;;;;;6113642;28;20077;-76
2021/06/11 08:53:33;;;;;;;5.50;3.67;;;27.70;46.00;;;;;;6129992;28;20484;-76
2021/06/11 08:56:34;;;;;;;9.80;6.38;;;27.80;45.70;;;;;;6114467;28;20075;-77
2021/06/11 08:59:37;;;;;;;20.55;8.23;;;28.00;45.50;;;;;;6130535;28;20115;-76
2021/06/11 09:03:21;;;;;;;9.18;4.93;;;28.20;45.10;;;;;;6129569;28;20032;-76
2021/06/11 09:06:23;;;;;;;9.40;4.20;;;28.30;44.50;;;;;;6124424;28;20050;-76
2021/06/11 09:09:47;;;;;;;8.48;4.63;;;28.40;44.10;;;;;;6117969;28;20338;-77
2021/06/11 09:12:52;;;;;;;11.45;4.50;;;28.50;44.20;;;;;;6123210;28;20035;-77
2021/06/11 09:16:15;;;;;;;8.70;4.10;;;28.60;44.00;;;;;;6122088;28;20043;-76
2021/06/11 09:19:19;;;;;;;7.20;4.13;;;28.70;43.80;;;;;;6125342;28;20135;-76
2021/06/11 09:22:38;;;;;;;10.18;4.00;;;28.80;43.60;;;;;;6125804;28;20054;-76
2021/06/11 09:25:45;;;;;;;11.57;3.78;;;28.80;43.50;;;;;;6109866;29;20036;-76
2021/06/11 09:28:47;;;;;;;8.65;4.13;;;28.90;43.40;;;;;;6091188;29;20151;-77
2021/06/11 09:31:48;;;;;;;9.70;4.25;;;29.00;43.20;;;;;;6082057;29;20139;-77
2021/06/11 09:34:57;;;;;;;8.63;4.25;;;29.00;43.00;;;;;;6076949;29;20036;-78
2021/06/11 09:38:10;;;;;;;6.68;4.93;;;29.00;42.70;;;;;;6092874;29;20052;-78
2021/06/11 09:41:11;;;;;;;10.50;5.13;;;29.00;42.40;;;;;;6080048;29;20024;-77
2021/06/11 09:44:25;;;;;;;7.57;4.13;;;29.10;42.20;;;;;;6091588;29;20115;-77
2021/06/11 09:47:51;;;;;;;7.60;4.05;;;29.10;42.10;;;;;;6076826;29;20047;-77
2021/06/11 09:50:52;;;;;;;10.18;4.80;;;29.20;42.00;;;;;;6034783;29;20049;-76
2021/06/11 09:53:54;;;;;;;7.60;4.03;;;29.20;41.80;;;;;;6068050;29;20364;-77
2021/06/11 09:56:55;;;;;;;5.78;4.10;;;29.20;41.90;;;;;;6076740;29;20033;-76
2021/06/11 09:59:56;;;;;;;10.38;4.20;;;29.30;41.70;;;;;;6075468;29;20123;-76
2021/06/11 10:02:59;;;;;;;6.95;3.92;;;29.30;41.30;;;;;;6060417;29;20437;-76
2021/06/11 10:06:02;;;;;;;7.75;4.22;;;29.30;41.30;;;;;;6059657;29;20108;-77
2021/06/11 10:09:03;;;;;;;6.05;4.00;;;29.40;41.30;;;;;;6058342;29;20048;-77
2021/06/11 10:12:05;;;;;;;9.82;4.20;;;29.50;41.30;;;;;;6058615;29;20124;-77
2021/06/11 10:15:07;;;;;;;5.20;3.80;;;29.50;41.10;;;;;;6075525;29;20096;-77
2021/06/11 10:18:10;;;;;;;9.73;4.30;;;29.60;41.10;;;;;;6076344;29;20046;-78
2021/06/11 10:21:12;;;;;;;7.22;3.80;;;29.60;41.10;;;;;;6067306;29;20430;-77
2021/06/11 10:24:20;;;;;;;6.00;3.80;;;29.70;41.10;;;;;;6075319;29;20346;-77
2021/06/11 10:27:21;;;;;;;4.55;3.90;;;29.80;41.00;;;;;;6073402;29;20103;-78
2021/06/11 10:30:38;;;;;;;7.57;4.32;;;29.90;40.80;;;;;;6057749;29;20128;-77
2021/06/11 10:33:49;;;;;;;5.38;4.18;;;30.00;40.70;;;;;;6048071;29;20033;-78
2021/06/11 10:36:51;;;;;;;9.38;4.18;;;30.10;40.80;;;;;;6074696;29;20049;-77
2021/06/11 10:39:52;;;;;;;7.22;4.38;;;30.20;40.70;;;;;;6050464;29;20119;-78
2021/06/11 10:43:25;;;;;;;14.60;4.82;;;30.30;40.60;;;;;;6058898;29;20116;-77
2021/06/11 10:46:31;;;;;;;7.95;4.00;;;30.30;40.70;;;;;;6020191;29;20049;-77
2021/06/11 10:49:55;;;;;;;8.15;4.63;;;30.40;40.60;;;;;;6043611;29;20075;-76
2021/06/11 10:53:30;;;;;;;6.88;3.83;;;30.40;40.60;;;;;;6036343;29;20059;-76
2021/06/11 10:56:33;;;;;;;7.07;4.05;;;30.40;40.50;;;;;;6033782;29;20104;-76
2021/06/11 10:59:34;;;;;;;10.73;4.88;;;30.60;40.40;;;;;;6052107;29;20187;-77
2021/06/11 11:02:49;;;;;;;8.85;3.83;;;30.60;40.40;;;;;;6057063;29;20054;-76
2021/06/11 11:05:51;;;;;;;4.88;4.25;;;30.90;39.90;;;;;;6056799;29;20028;-76
2021/06/11 11:08:54;;;;;;;8.48;4.20;;;32.00;38.40;;;;;;6058163;29;20085;-76
2021/06/11 11:11:59;;;;;;;7.88;3.90;;;33.40;36.50;;;;;;6078999;29;20043;-77
2021/06/11 11:15:03;;;;;;;6.75;3.78;;;34.40;34.60;;;;;;6095576;29;20114;-76
2021/06/11 11:18:06;;;;;;;5.78;3.78;;;35.40;33.00;;;;;;6095622;29;20060;-76
2021/06/11 11:21:35;;;;;;;4.28;3.83;;;36.10;32.00;;;;;;6096462;29;20477;-76
2021/06/11 11:24:58;;;;;;;4.88;3.65;;;36.70;30.40;;;;;;6340013;27;20528;-76
2021/06/11 11:27:59;;;;;;;5.15;3.67;;;37.20;29.90;;;;;;6334556;28;20445;-76
2021/06/11 11:31:00;;;;;;;8.45;4.10;;;37.60;29.40;;;;;;6291364;28;20029;-77
2021/06/11 11:34:02;;;;;;;7.50;3.90;;;37.90;29.00;;;;;;6268372;28;20126;-75
2021/06/11 11:37:03;;;;;;;4.13;3.47;;;38.20;28.70;;;;;;6315194;28;20080;-76
2021/06/11 11:40:05;;;;;;;6.25;3.38;;;38.50;28.60;;;;;;6316289;28;20119;-76
2021/06/11 11:43:07;;;;;;;4.97;3.30;;;38.90;28.10;;;;;;6319042;28;20054;-76
2021/06/11 11:46:07;;;;;;;4.78;3.28;;;39.00;27.60;;;;;;6318350;28;20055;-76
2021/06/11 11:49:08;;;;;;;8.70;3.67;;;39.00;27.40;;;;;;6317987;28;20028;-76
2021/06/11 11:52:10;;;;;;;6.05;3.67;;;39.00;27.30;;;;;;6308284;28;20039;-76
2021/06/11 11:55:11;;;;;;;4.60;3.45;;;39.10;27.10;;;;;;6318260;28;20052;-76
2021/06/11 11:58:15;;;;;;;5.22;3.30;;;39.10;27.10;;;;;;6333800;28;20038;-77
2021/06/11 12:01:16;;;;;;;3.72;3.05;;;39.20;26.90;;;;;;6248412;28;20026;-76
2021/06/11 12:04:18;;;;;;;3.72;3.00;;;38.90;27.00;;;;;;6241676;28;20042;-76
2021/06/11 12:07:19;;;;;;;9.05;3.78;;;38.80;27.10;;;;;;6188749;28;20113;-77
2021/06/11 12:10:20;;;;;;;4.55;3.30;;;38.80;27.30;;;;;;6191560;28;20031;-77
2021/06/11 12:13:21;;;;;;;5.90;3.33;;;38.80;27.20;;;;;;6231919;28;20030;-77
2021/06/11 12:16:23;;;;;;;3.72;3.30;;;38.70;27.30;;;;;;6212105;28;20026;-77
2021/06/11 12:19:24;;;;;;;4.38;3.30;;;38.80;27.20;;;;;;6227789;28;20358;-77
2021/06/11 12:22:25;;;;;;;6.70;3.35;;;39.00;26.90;;;;;;6208107;28;20052;-76
2021/06/11 12:25:26;;;;;;;7.68;3.55;;;39.10;26.80;;;;;;6234359;28;20033;-77
2021/06/11 12:28:27;;;;;;;12.48;3.08;;;39.00;26.80;;;;;;6234682;28;20049;-77
2021/06/11 12:31:30;;;;;;;6.40;3.28;;;38.80;26.80;;;;;;6234419;28;20504;-76
2021/06/11 12:34:31;;;;;;;3.35;3.05;;;38.70;26.90;;;;;;6228752;28;20033;-76
2021/06/11 12:37:32;;;;;;;3.40;3.10;;;38.60;27.10;;;;;;6219838;28;20463;-76
2021/06/11 12:40:33;;;;;;;4.10;2.92;;;38.60;27.00;;;;;;6220937;28;20045;-77
2021/06/11 12:46:55;;;;;;;3.35;2.75;;;38.90;26.50;;;;;;6247812;28;20339;-76
2021/06/11 12:49:57;;;;;;;6.70;3.55;;;38.80;26.40;;;;;;6221984;28;20042;-77
2021/06/11 12:52:58;;;;;;;3.25;2.67;;;38.70;26.40;;;;;;6221665;28;20053;-76
2021/06/11 12:55:59;;;;;;;5.95;3.83;;;38.70;26.50;;;;;;6236018;28;20057;-76
2021/06/11 12:59:00;;;;;;;10.57;3.15;;;38.90;26.40;;;;;;6258040;28;20490;-77
2021/06/11 13:02:01;;;;;;;6.13;3.72;;;39.30;25.90;;;;;;6186834;28;20038;-75
2021/06/11 13:05:04;;;;;;;3.25;2.78;;;39.10;25.90;;;;;;6202177;28;20173;-76
2021/06/11 13:08:05;;;;;;;7.53;2.92;;;39.30;25.80;;;;;;6202994;28;20038;-76
2021/06/11 13:11:06;;;;;;;4.00;3.10;;;40.00;25.90;;;;;;6199075;28;20035;-77
2021/06/11 13:14:07;;;;;;;4.43;3.22;;;40.70;24.50;;;;;;6170941;28;20038;-76
2021/06/11 13:17:08;;;;;;;3.30;3.00;;;41.10;24.10;;;;;;6186652;28;20030;-76
2021/06/11 13:20:10;;;;;;;7.32;3.00;;;41.60;23.80;;;;;;6204018;28;20053;-76
2021/06/11 13:23:11;;;;;;;4.53;3.40;;;42.30;23.00;;;;;;6171880;28;20213;-76
2021/06/11 13:26:12;;;;;;;3.47;3.13;;;42.70;22.50;;;;;;6241795;28;20037;-77
2021/06/11 13:29:14;;;;;;;3.90;2.78;;;43.20;22.20;;;;;;6219223;28;20868;-76
2021/06/11 13:32:15;;;;;;;4.13;2.72;;;43.60;21.70;;;;;;6189325;28;20432;-75
2021/06/11 13:35:16;;;;;;;12.85;3.00;;;43.60;21.20;;;;;;6170730;28;20065;-76
2021/06/11 13:38:17;;;;;;;12.25;3.47;;;43.80;21.10;;;;;;6187668;28;20049;-76
2021/06/11 13:41:21;;;;;;;7.20;2.83;;;44.00;21.00;;;;;;6187125;28;20040;-76
2021/06/11 13:44:22;;;;;;;4.45;3.17;;;44.40;20.60;;;;;;6169755;28;20051;-76
2021/06/11 13:47:23;;;;;;;4.47;2.70;;;44.70;20.20;;;;;;6169417;28;20035;-76
2021/06/11 13:50:26;;;;;;;6.15;2.72;;;45.30;20.00;;;;;;6170707;28;20042;-76
2021/06/11 13:53:26;;;;;;;4.00;2.60;;;45.70;19.60;;;;;;6188194;28;20046;-76
2021/06/11 13:56:28;;;;;;;3.83;2.63;;;45.90;19.30;;;;;;6204532;28;20069;-76
2021/06/11 13:59:29;;;;;;;10.35;3.15;;;46.10;19.10;;;;;;6209621;28;20031;-76
2021/06/11 14:02:30;;;;;;;3.67;3.20;;;46.50;18.80;;;;;;6217461;28;20119;-77
2021/06/11 14:05:31;;;;;;;5.22;3.13;;;46.50;18.60;;;;;;6218508;28;20033;-76
2021/06/11 14:08:38;;;;;;;4.20;2.72;;;46.80;18.70;;;;;;6209607;28;20033;-76
2021/06/11 14:11:41;;;;;;;3.08;2.78;;;46.80;18.30;;;;;;6215104;28;20030;-76
2021/06/11 14:14:43;;;;;;;8.45;2.85;;;46.80;18.40;;;;;;6202725;28;20038;-76
2021/06/11 14:17:44;;;;;;;3.58;3.20;;;47.00;18.30;;;;;;6219766;28;20038;-76
2021/06/11 14:20:45;;;;;;;3.30;2.92;;;47.10;18.20;;;;;;6213969;28;20029;-76
2021/06/11 14:23:46;;;;;;;2.78;2.45;;;47.00;18.10;;;;;;6219193;28;20046;-77
2021/06/11 14:26:47;;;;;;;10.15;2.63;;;46.60;18.20;;;;;;6210806;28;20117;-77
2021/06/11 14:29:49;;;;;;;3.08;2.75;;;46.40;18.40;;;;;;6211646;28;20105;-77
2021/06/11 14:32:49;;;;;;;5.65;2.45;;;46.50;18.30;;;;;;6219520;28;20045;-77
2021/06/11 14:35:51;;;;;;;4.47;2.63;;;46.80;17.90;;;;;;6220142;28;20033;-77
2021/06/11 14:38:52;;;;;;;2.78;2.47;;;46.60;17.90;;;;;;6210109;28;20037;-77
2021/06/11 14:41:53;;;;;;;8.50;2.72;;;46.50;17.90;;;;;;6195437;28;20042;-76
2021/06/11 14:44:55;;;;;;;2.60;2.40;;;46.20;18.00;;;;;;6195160;28;20484;-76
2021/06/11 14:47:56;;;;;;;3.00;2.70;;;45.80;18.00;;;;;;6195888;28;20049;-76
2021/06/11 14:50:57;;;;;;;4.90;2.50;;;45.50;17.90;;;;;;6182987;28;20043;-77
2021/06/11 14:54:00;;;;;;;2.75;2.38;;;45.20;18.30;;;;;;6187119;28;20034;-76
2021/06/11 14:57:08;;;;;;;4.22;2.53;;;45.00;18.40;;;;;;6186955;28;20049;-76
2021/06/11 15:00:10;;;;;;;3.42;2.60;;;44.80;18.60;;;;;;6166117;28;20037;-76
2021/06/11 15:03:13;;;;;;;3.95;2.72;;;44.60;18.60;;;;;;6231341;28;20037;-77
2021/06/11 15:06:14;;;;;;;2.47;2.28;;;44.60;18.60;;;;;;6218451;28;20355;-77
2021/06/11 15:09:15;;;;;;;4.57;2.70;;;45.00;18.30;;;;;;6219189;28;20034;-76
2021/06/11 15:12:16;;;;;;;5.43;2.90;;;45.40;18.20;;;;;;6216015;28;20033;-76
2021/06/11 15:15:18;;;;;;;3.13;2.80;;;45.70;18.00;;;;;;6213590;28;20041;-76
2021/06/11 15:18:21;;;;;;;5.63;2.83;;;45.70;17.90;;;;;;6213208;28;20411;-76
2021/06/11 15:21:22;;;;;;;4.18;2.47;;;45.50;18.00;;;;;;6218276;28;20048;-76
2021/06/11 15:24:23;;;;;;;3.28;2.40;;;45.20;18.10;;;;;;6250155;28;20121;-77
2021/06/11 15:27:24;;;;;;;5.70;3.13;;;45.00;18.10;;;;;;6201376;28;20033;-77
2021/06/11 15:30:26;;;;;;;7.25;3.30;;;45.00;18.20;;;;;;6204710;28;20246;-77
2021/06/11 15:33:27;;;;;;;3.03;2.55;;;45.30;18.30;;;;;;6201860;28;20113;-77
2021/06/11 15:36:29;;;;;;;3.45;2.75;;;45.50;18.20;;;;;;6195591;28;20031;-77
2021/06/11 15:39:30;;;;;;;4.38;2.65;;;45.80;17.80;;;;;;6194568;28;20451;-76
2021/06/11 15:42:32;;;;;;;3.25;2.70;;;45.40;17.80;;;;;;6178479;28;20038;-76
2021/06/11 15:45:34;;;;;;;3.55;2.40;;;45.10;18.10;;;;;;6216077;28;20034;-76
2021/06/11 15:48:36;;;;;;;3.10;2.67;;;45.00;18.10;;;;;;6219399;28;20070;-75
2021/06/11 15:51:37;;;;;;;3.75;2.55;;;44.60;18.30;;;;;;6217906;28;20113;-77
2021/06/11 15:54:38;;;;;;;3.97;2.70;;;44.50;18.50;;;;;;6217830;28;20052;-77
2021/06/11 15:57:39;;;;;;;5.15;2.65;;;44.30;18.30;;;;;;6217480;28;20382;-77